sensor_id;sensor_type;location;lat;lon;timestamp;pressure;altitude;pressure_sealevel;temperature;humidity
61908;BME280;47864;52.526;19.672;2022-11-20T00:01:09;100681.69;;;-2.67;100.00
61908;BME280;47864;52.526;19.672;2022-11-20T00:03:12;100703.50;;;-2.51;100.00
61908;BME280;47864;52.526;19.672;2022-11-20T00:05:14;100703.50;;;-2.51;100.00
61908;BME280;47864;52.526;19.672;2022-11-20T00:07:15;100707.16;;;-2.37;100.00
61908;BME280;47864;52.526;19.672;2022-11-20T00:09:17;100705.88;;;-2.47;100.00
61908;BME280;47864;52.526;19.672;2022-11-20T00:11:21;100707.91;;;-2.53;100.00
61908;BME280;47864;52.526;19.672;2022-11-20T00:13:23;100716.19;;;-2.45;100.00
61908;BME280;47864;52.526;19.672;2022-11-20T00:15:25;100715.84;;;-2.56;100.00
61908;BME280;47864;52.526;19.672;2022-11-20T00:17:27;100703.44;;;-2.50;100.00
61908;BME280;47864;52.526;19.672;2022-11-20T00:19:29;100709.19;;;-2.43;100.00
61908;BME280;47864;52.526;19.672;2022-11-20T00:21:31;100706.38;;;-2.39;100.00
61908;BME280;47864;52.526;19.672;2022-11-20T00:23:33;100704.72;;;-2.40;100.00
61908;BME280;47864;52.526;19.672;2022-11-20T00:25:35;100701.41;;;-2.43;100.00
61908;BME280;47864;52.526;19.672;2022-11-20T00:27:37;100708.88;;;-2.36;100.00
61908;BME280;47864;52.526;19.672;2022-11-20T00:29:39;100702.59;;;-2.50;100.00
61908;BME280;47864;52.526;19.672;2022-11-20T00:31:41;100706.53;;;-2.42;100.00
61908;BME280;47864;52.526;19.672;2022-11-20T00:33:43;100699.50;;;-2.19;100.00
61908;BME280;47864;52.526;19.672;2022-11-20T00:35:45;100700.50;;;-2.42;100.00
61908;BME280;47864;52.526;19.672;2022-11-20T00:37:47;100703.22;;;-2.45;100.00
61908;BME280;47864;52.526;19.672;2022-11-20T00:39:49;100690.22;;;-2.45;100.00
61908;BME280;47864;52.526;19.672;2022-11-20T00:41:52;100700.94;;;-2.33;100.00
61908;BME280;47864;52.526;19.672;2022-11-20T00:43:55;100695.59;;;-2.30;100.00
61908;BME280;47864;52.526;19.672;2022-11-20T00:46:05;100702.88;;;-2.38;100.00
61908;BME280;47864;52.526;19.672;2022-11-20T00:48:07;100698.94;;;-2.46;100.00
61908;BME280;47864;52.526;19.672;2022-11-20T00:50:09;100701.91;;;-2.35;100.00
61908;BME280;47864;52.526;19.672;2022-11-20T00:52:12;100695.53;;;-2.28;100.00
61908;BME280;47864;52.526;19.672;2022-11-20T00:54:14;100700.47;;;-2.22;100.00
61908;BME280;47864;52.526;19.672;2022-11-20T00:56:18;100696.38;;;-2.27;100.00
61908;BME280;47864;52.526;19.672;2022-11-20T00:58:21;100689.50;;;-2.28;100.00
61908;BME280;47864;52.526;19.672;2022-11-20T01:00:23;100688.03;;;-2.34;100.00
61908;BME280;47864;52.526;19.672;2022-11-20T01:02:25;100691.41;;;-2.32;100.00
61908;BME280;47864;52.526;19.672;2022-11-20T01:04:29;100687.91;;;-2.31;100.00
61908;BME280;47864;52.526;19.672;2022-11-20T01:06:34;100686.97;;;-2.30;100.00
61908;BME280;47864;52.526;19.672;2022-11-20T01:08:36;100682.81;;;-2.34;100.00
61908;BME280;47864;52.526;19.672;2022-11-20T01:10:39;100691.91;;;-2.24;100.00
61908;BME280;47864;52.526;19.672;2022-11-20T01:12:40;100691.56;;;-2.16;100.00
61908;BME280;47864;52.526;19.672;2022-11-20T01:14:42;100684.97;;;-2.23;100.00
61908;BME280;47864;52.526;19.672;2022-11-20T01:16:48;100685.47;;;-2.15;100.00
61908;BME280;47864;52.526;19.672;2022-11-20T01:18:53;100687.28;;;-2.17;100.00
61908;BME280;47864;52.526;19.672;2022-11-20T01:20:55;100691.56;;;-2.16;100.00
61908;BME280;47864;52.526;19.672;2022-11-20T01:22:57;100681.19;;;-2.16;100.00
61908;BME280;47864;52.526;19.672;2022-11-20T01:24:59;100687.63;;;-2.25;100.00
61908;BME280;47864;52.526;19.672;2022-11-20T01:27:01;100685.53;;;-2.17;100.00
61908;BME280;47864;52.526;19.672;2022-11-20T01:29:04;100696.00;;;-2.00;100.00
61908;BME280;47864;52.526;19.672;2022-11-20T01:33:16;100683.44;;;-2.09;100.00
61908;BME280;47864;52.526;19.672;2022-11-20T01:35:19;100680.00;;;-2.09;100.00
61908;BME280;47864;52.526;19.672;2022-11-20T01:37:21;100675.63;;;-2.09;100.00
61908;BME280;47864;52.526;19.672;2022-11-20T01:39:25;100676.13;;;-2.01;100.00
61908;BME280;47864;52.526;19.672;2022-11-20T01:41:29;100667.91;;;-2.10;100.00
61908;BME280;47864;52.526;19.672;2022-11-20T01:43:31;100669.53;;;-2.08;100.00
61908;BME280;47864;52.526;19.672;2022-11-20T01:48:12;100647.66;;;-2.04;100.00
61908;BME280;47864;52.526;19.672;2022-11-20T01:50:18;100671.63;;;-1.97;100.00
61908;BME280;47864;52.526;19.672;2022-11-20T01:52:26;100664.28;;;-2.06;100.00
61908;BME280;47864;52.526;19.672;2022-11-20T01:54:36;100668.97;;;-1.96;100.00
61908;BME280;47864;52.526;19.672;2022-11-20T01:56:41;100669.50;;;-1.89;100.00
61908;BME280;47864;52.526;19.672;2022-11-20T01:58:50;100670.22;;;-1.85;100.00
61908;BME280;47864;52.526;19.672;2022-11-20T02:00:53;100663.91;;;-1.80;100.00
61908;BME280;47864;52.526;19.672;2022-11-20T02:02:59;100636.25;;;-2.00;100.00
61908;BME280;47864;52.526;19.672;2022-11-20T02:05:25;100656.63;;;-1.90;100.00
61908;BME280;47864;52.526;19.672;2022-11-20T02:07:29;100663.91;;;-1.80;100.00
61908;BME280;47864;52.526;19.672;2022-11-20T02:09:32;100656.88;;;-1.97;100.00
61908;BME280;47864;52.526;19.672;2022-11-20T02:11:33;100671.91;;;-1.84;100.00
61908;BME280;47864;52.526;19.672;2022-11-20T02:13:35;100663.50;;;-1.89;100.00
61908;BME280;47864;52.526;19.672;2022-11-20T02:15:37;100661.44;;;-1.83;100.00
61908;BME280;47864;52.526;19.672;2022-11-20T02:17:39;100652.66;;;-1.80;100.00
61908;BME280;47864;52.526;19.672;2022-11-20T02:19:41;100655.59;;;-1.69;100.00
61908;BME280;47864;52.526;19.672;2022-11-20T02:21:49;100653.50;;;-1.80;100.00
61908;BME280;47864;52.526;19.672;2022-11-20T02:24:12;100659.47;;;-1.78;100.00
61908;BME280;47864;52.526;19.672;2022-11-20T02:26:16;100651.31;;;-1.89;100.00
61908;BME280;47864;52.526;19.672;2022-11-20T02:28:19;100660.03;;;-1.71;100.00
61908;BME280;47864;52.526;19.672;2022-11-20T02:30:21;100660.09;;;-1.73;100.00
61908;BME280;47864;52.526;19.672;2022-11-20T02:32:28;100656.56;;;-1.72;100.00
61908;BME280;47864;52.526;19.672;2022-11-20T02:34:31;100660.88;;;-1.71;100.00
61908;BME280;47864;52.526;19.672;2022-11-20T02:36:34;100662.00;;;-1.76;100.00
61908;BME280;47864;52.526;19.672;2022-11-20T02:38:37;100664.91;;;-1.82;100.00
61908;BME280;47864;52.526;19.672;2022-11-20T02:40:39;100665.75;;;-1.82;100.00
61908;BME280;47864;52.526;19.672;2022-11-20T02:42:41;100662.63;;;-1.71;100.00
61908;BME280;47864;52.526;19.672;2022-11-20T02:44:43;100658.47;;;-1.57;100.00
61908;BME280;47864;52.526;19.672;2022-11-20T02:46:45;100653.72;;;-1.66;100.00
61908;BME280;47864;52.526;19.672;2022-11-20T02:48:47;100650.81;;;-1.78;100.00
61908;BME280;47864;52.526;19.672;2022-11-20T02:50:49;100650.69;;;-1.75;100.00
61908;BME280;47864;52.526;19.672;2022-11-20T02:52:51;100656.81;;;-1.76;100.00
61908;BME280;47864;52.526;19.672;2022-11-20T02:54:53;100653.22;;;-1.74;100.00
61908;BME280;47864;52.526;19.672;2022-11-20T02:56:54;100650.75;;;-1.77;100.00
61908;BME280;47864;52.526;19.672;2022-11-20T02:58:56;100649.56;;;-1.88;100.00
61908;BME280;47864;52.526;19.672;2022-11-20T03:00:58;100649.19;;;-1.81;100.00
61908;BME280;47864;52.526;19.672;2022-11-20T03:03:00;100657.72;;;-1.77;100.00
61908;BME280;47864;52.526;19.672;2022-11-20T03:05:06;100653.59;;;-1.81;100.00
61908;BME280;47864;52.526;19.672;2022-11-20T03:07:09;100657.16;;;-1.84;100.00
61908;BME280;47864;52.526;19.672;2022-11-20T03:09:11;100659.03;;;-1.69;100.00
61908;BME280;47864;52.526;19.672;2022-11-20T03:11:13;100659.53;;;-1.61;100.00
61908;BME280;47864;52.526;19.672;2022-11-20T03:13:15;100654.69;;;-1.87;100.00
61908;BME280;47864;52.526;19.672;2022-11-20T03:15:16;100660.53;;;-1.82;100.00
61908;BME280;47864;52.526;19.672;2022-11-20T03:17:18;100644.50;;;-1.73;100.00
61908;BME280;47864;52.526;19.672;2022-11-20T03:19:20;100653.78;;;-1.67;100.00
61908;BME280;47864;52.526;19.672;2022-11-20T03:21:22;100654.22;;;-1.76;100.00
61908;BME280;47864;52.526;19.672;2022-11-20T03:23:24;100653.47;;;-1.61;100.00
61908;BME280;47864;52.526;19.672;2022-11-20T03:25:26;100655.38;;;-1.65;100.00
61908;BME280;47864;52.526;19.672;2022-11-20T03:27:32;100652.31;;;-1.92;100.00
61908;BME280;47864;52.526;19.672;2022-11-20T03:29:37;100658.56;;;-1.96;100.00
61908;BME280;47864;52.526;19.672;2022-11-20T03:31:40;100660.38;;;-1.98;100.00
61908;BME280;47864;52.526;19.672;2022-11-20T03:33:42;100651.84;;;-2.00;100.00
61908;BME280;47864;52.526;19.672;2022-11-20T03:35:44;100643.53;;;-1.89;100.00
61908;BME280;47864;52.526;19.672;2022-11-20T03:37:46;100653.59;;;-1.81;100.00
61908;BME280;47864;52.526;19.672;2022-11-20T03:39:48;100645.63;;;-1.78;100.00
61908;BME280;47864;52.526;19.672;2022-11-20T03:41:49;100641.13;;;-1.75;100.00
61908;BME280;47864;52.526;19.672;2022-11-20T03:43:54;100651.13;;;-1.84;100.00
61908;BME280;47864;52.526;19.672;2022-11-20T03:45:56;100644.59;;;-1.74;100.00
61908;BME280;47864;52.526;19.672;2022-11-20T03:47:58;100640.41;;;-1.60;100.00
61908;BME280;47864;52.526;19.672;2022-11-20T03:49:59;100640.13;;;-1.54;100.00
61908;BME280;47864;52.526;19.672;2022-11-20T03:52:01;100643.44;;;-1.69;100.00
61908;BME280;47864;52.526;19.672;2022-11-20T03:54:05;100645.97;;;-1.67;100.00
61908;BME280;47864;52.526;19.672;2022-11-20T03:56:09;100647.72;;;-1.68;100.00
61908;BME280;47864;52.526;19.672;2022-11-20T03:58:11;100645.13;;;-1.68;100.00
61908;BME280;47864;52.526;19.672;2022-11-20T04:00:13;100648.63;;;-1.50;100.00
61908;BME280;47864;52.526;19.672;2022-11-20T04:02:15;100644.47;;;-1.54;100.00
61908;BME280;47864;52.526;19.672;2022-11-20T04:04:17;100647.78;;;-1.50;100.00
61908;BME280;47864;52.526;19.672;2022-11-20T04:06:36;100644.16;;;-1.48;100.00
61908;BME280;47864;52.526;19.672;2022-11-20T04:08:39;100638.28;;;-1.51;100.00
61908;BME280;47864;52.526;19.672;2022-11-20T04:10:41;100647.31;;;-1.59;100.00
61908;BME280;47864;52.526;19.672;2022-11-20T04:12:43;100647.06;;;-1.54;100.00
61908;BME280;47864;52.526;19.672;2022-11-20T04:14:44;100638.41;;;-1.55;100.00
61908;BME280;47864;52.526;19.672;2022-11-20T04:16:46;100647.91;;;-1.54;100.00
61908;BME280;47864;52.526;19.672;2022-11-20T04:18:55;100635.06;;;-1.57;100.00
61908;BME280;47864;52.526;19.672;2022-11-20T04:20:58;100640.19;;;-1.55;100.00
61908;BME280;47864;52.526;19.672;2022-11-20T04:23:00;100647.13;;;-1.56;100.00
61908;BME280;47864;52.526;19.672;2022-11-20T04:25:01;100638.16;;;-1.48;100.00
61908;BME280;47864;52.526;19.672;2022-11-20T04:27:03;100636.06;;;-1.59;100.00
61908;BME280;47864;52.526;19.672;2022-11-20T04:29:05;100631.53;;;-1.56;100.00
61908;BME280;47864;52.526;19.672;2022-11-20T04:31:13;100639.88;;;-1.66;100.00
61908;BME280;47864;52.526;19.672;2022-11-20T04:33:15;100642.31;;;-1.63;100.00
61908;BME280;47864;52.526;19.672;2022-11-20T04:35:17;100638.78;;;-1.62;100.00
61908;BME280;47864;52.526;19.672;2022-11-20T04:37:18;100628.38;;;-1.62;100.00
61908;BME280;47864;52.526;19.672;2022-11-20T04:39:20;100630.84;;;-1.59;100.00
61908;BME280;47864;52.526;19.672;2022-11-20T04:41:25;100630.25;;;-1.47;100.00
61908;BME280;47864;52.526;19.672;2022-11-20T04:43:28;100622.28;;;-1.61;100.00
61908;BME280;47864;52.526;19.672;2022-11-20T04:45:30;100613.25;;;-1.54;100.00
61908;BME280;47864;52.526;19.672;2022-11-20T04:47:32;100606.78;;;-1.45;100.00
61908;BME280;47864;52.526;19.672;2022-11-20T04:49:33;100609.81;;;-1.55;100.00
61908;BME280;47864;52.526;19.672;2022-11-20T04:51:47;100614.03;;;-1.52;100.00
61908;BME280;47864;52.526;19.672;2022-11-20T04:53:55;100610.75;;;-1.38;100.00
61908;BME280;47864;52.526;19.672;2022-11-20T04:56:08;100611.97;;;-1.45;100.00
61908;BME280;47864;52.526;19.672;2022-11-20T04:58:11;100622.91;;;-1.39;100.00
61908;BME280;47864;52.526;19.672;2022-11-20T05:00:13;100621.09;;;-1.37;100.00
61908;BME280;47864;52.526;19.672;2022-11-20T05:02:15;100618.50;;;-1.20;100.00
61908;BME280;47864;52.526;19.672;2022-11-20T05:04:17;100603.41;;;-1.30;100.00
61908;BME280;47864;52.526;19.672;2022-11-20T05:06:24;100609.00;;;-1.38;100.00
61908;BME280;47864;52.526;19.672;2022-11-20T05:08:26;100607.53;;;-1.43;100.00
61908;BME280;47864;52.526;19.672;2022-11-20T05:10:28;100601.44;;;-1.42;100.00
61908;BME280;47864;52.526;19.672;2022-11-20T05:12:31;100600.91;;;-1.49;100.00
61908;BME280;47864;52.526;19.672;2022-11-20T05:14:33;100597.91;;;-1.41;100.00
61908;BME280;47864;52.526;19.672;2022-11-20T05:16:35;100591.53;;;-1.53;100.00
61908;BME280;47864;52.526;19.672;2022-11-20T05:18:38;100597.97;;;-1.43;100.00
61908;BME280;47864;52.526;19.672;2022-11-20T05:20:40;100597.59;;;-1.52;100.00
61908;BME280;47864;52.526;19.672;2022-11-20T05:22:41;100596.00;;;-1.38;100.00
61908;BME280;47864;52.526;19.672;2022-11-20T05:24:43;100590.34;;;-1.29;100.00
61908;BME280;47864;52.526;19.672;2022-11-20T05:26:45;100589.88;;;-1.37;100.00
61908;BME280;47864;52.526;19.672;2022-11-20T05:28:48;100590.97;;;-1.41;100.00
61908;BME280;47864;52.526;19.672;2022-11-20T05:30:50;100603.66;;;-1.35;100.00
61908;BME280;47864;52.526;19.672;2022-11-20T05:32:52;100594.53;;;-1.43;100.00
61908;BME280;47864;52.526;19.672;2022-11-20T05:34:54;100602.56;;;-1.48;100.00
61908;BME280;47864;52.526;19.672;2022-11-20T05:36:56;100603.31;;;-1.46;100.00
61908;BME280;47864;52.526;19.672;2022-11-20T05:38:58;100595.06;;;-1.37;100.00
61908;BME280;47864;52.526;19.672;2022-11-20T05:41:07;100593.38;;;-1.38;100.00
61908;BME280;47864;52.526;19.672;2022-11-20T05:43:09;100593.19;;;-1.16;100.00
61908;BME280;47864;52.526;19.672;2022-11-20T05:45:11;100595.09;;;-1.20;100.00
61908;BME280;47864;52.526;19.672;2022-11-20T05:47:12;100595.53;;;-1.29;100.00
61908;BME280;47864;52.526;19.672;2022-11-20T05:49:14;100594.56;;;-1.26;100.00
61908;BME280;47864;52.526;19.672;2022-11-20T05:51:17;100598.38;;;-1.16;100.00
61908;BME280;47864;52.526;19.672;2022-11-20T05:53:20;100588.03;;;-1.18;100.00
61908;BME280;47864;52.526;19.672;2022-11-20T05:55:21;100590.03;;;-1.23;100.00
61908;BME280;47864;52.526;19.672;2022-11-20T05:57:23;100597.91;;;-1.07;100.00
61908;BME280;47864;52.526;19.672;2022-11-20T05:59:25;100602.50;;;-1.12;100.00
61908;BME280;47864;52.526;19.672;2022-11-20T06:01:27;100595.78;;;-1.16;100.00
61908;BME280;47864;52.526;19.672;2022-11-20T06:03:29;100600.34;;;-1.21;100.00
61908;BME280;47864;52.526;19.672;2022-11-20T06:05:30;100603.84;;;-1.39;100.00
61908;BME280;47864;52.526;19.672;2022-11-20T06:07:33;100608.41;;;-1.26;100.00
61908;BME280;47864;52.526;19.672;2022-11-20T06:09:35;100606.09;;;-1.32;100.00
61908;BME280;47864;52.526;19.672;2022-11-20T06:11:37;100591.88;;;-1.42;100.00
61908;BME280;47864;52.526;19.672;2022-11-20T06:13:39;100601.38;;;-1.24;100.00
61908;BME280;47864;52.526;19.672;2022-11-20T06:15:49;100604.13;;;-1.27;100.00
61908;BME280;47864;52.526;19.672;2022-11-20T06:17:54;100606.31;;;-1.36;100.00
61908;BME280;47864;52.526;19.672;2022-11-20T06:19:56;100605.56;;;-1.21;100.00
61908;BME280;47864;52.526;19.672;2022-11-20T06:21:58;100608.69;;;-1.15;100.00
61908;BME280;47864;52.526;19.672;2022-11-20T06:23:59;100610.69;;;-1.20;100.00
61908;BME280;47864;52.526;19.672;2022-11-20T06:26:15;100604.66;;;-1.20;100.00
61908;BME280;47864;52.526;19.672;2022-11-20T06:28:17;100613.16;;;-1.17;100.00
61908;BME280;47864;52.526;19.672;2022-11-20T06:30:19;100614.06;;;-1.18;100.00
61908;BME280;47864;52.526;19.672;2022-11-20T06:32:21;100611.59;;;-1.38;100.00
61908;BME280;47864;52.526;19.672;2022-11-20T06:34:22;100617.59;;;-1.19;100.00
61908;BME280;47864;52.526;19.672;2022-11-20T06:36:24;100610.84;;;-1.23;100.00
61908;BME280;47864;52.526;19.672;2022-11-20T06:38:27;100621.88;;;-1.35;100.00
61908;BME280;47864;52.526;19.672;2022-11-20T06:40:29;100619.72;;;-1.44;100.00
61908;BME280;47864;52.526;19.672;2022-11-20T06:42:32;100620.16;;;-1.53;100.00
61908;BME280;47864;52.526;19.672;2022-11-20T06:44:33;100621.53;;;-1.46;100.00
61908;BME280;47864;52.526;19.672;2022-11-20T06:46:35;100623.56;;;-1.34;100.00
61908;BME280;47864;52.526;19.672;2022-11-20T06:48:37;100605.63;;;-1.40;100.00
61908;BME280;47864;52.526;19.672;2022-11-20T06:50:39;100620.69;;;-1.46;100.00
61908;BME280;47864;52.526;19.672;2022-11-20T06:52:41;100617.47;;;-1.51;100.00
61908;BME280;47864;52.526;19.672;2022-11-20T06:54:44;100610.53;;;-1.51;100.00
61908;BME280;47864;52.526;19.672;2022-11-20T06:56:47;100612.78;;;-1.62;100.00
61908;BME280;47864;52.526;19.672;2022-11-20T06:58:48;100614.28;;;-1.57;100.00
61908;BME280;47864;52.526;19.672;2022-11-20T07:00:50;100612.50;;;-1.39;100.00
61908;BME280;47864;52.526;19.672;2022-11-20T07:02:52;100606.00;;;-1.30;100.00
61908;BME280;47864;52.526;19.672;2022-11-20T07:04:54;100606.38;;;-1.38;100.00
61908;BME280;47864;52.526;19.672;2022-11-20T07:06:55;100601.03;;;-1.52;100.00
61908;BME280;47864;52.526;19.672;2022-11-20T07:08:57;100592.75;;;-1.60;100.00
61908;BME280;47864;52.526;19.672;2022-11-20T07:11:01;100599.78;;;-1.62;100.00
61908;BME280;47864;52.526;19.672;2022-11-20T07:13:03;100595.84;;;-1.35;100.00
61908;BME280;47864;52.526;19.672;2022-11-20T07:15:06;100597.34;;;-1.48;100.00
61908;BME280;47864;52.526;19.672;2022-11-20T07:17:08;100593.19;;;-1.33;100.00
61908;BME280;47864;52.526;19.672;2022-11-20T07:19:09;100591.78;;;-1.23;100.00
61908;BME280;47864;52.526;19.672;2022-11-20T07:21:12;100589.94;;;-1.21;100.00
61908;BME280;47864;52.526;19.672;2022-11-20T07:23:13;100596.84;;;-1.20;100.00
61908;BME280;47864;52.526;19.672;2022-11-20T07:25:15;100590.25;;;-1.27;100.00
61908;BME280;47864;52.526;19.672;2022-11-20T07:27:17;100581.63;;;-1.28;100.00
61908;BME280;47864;52.526;19.672;2022-11-20T07:29:19;100589.34;;;-1.26;100.00
61908;BME280;47864;52.526;19.672;2022-11-20T07:31:21;100586.38;;;-1.19;100.00
61908;BME280;47864;52.526;19.672;2022-11-20T07:33:23;100582.22;;;-1.05;100.00
61908;BME280;47864;52.526;19.672;2022-11-20T07:35:25;100577.44;;;-0.97;100.00
61908;BME280;47864;52.526;19.672;2022-11-20T07:37:26;100570.81;;;-1.03;100.00
61908;BME280;47864;52.526;19.672;2022-11-20T07:39:28;100580.13;;;-0.99;100.00
61908;BME280;47864;52.526;19.672;2022-11-20T07:41:30;100579.16;;;-0.96;100.00
61908;BME280;47864;52.526;19.672;2022-11-20T07:43:32;100584.31;;;-0.79;100.00
61908;BME280;47864;52.526;19.672;2022-11-20T07:45:41;100583.81;;;-1.03;100.00
61908;BME280;47864;52.526;19.672;2022-11-20T07:47:43;100566.59;;;-1.05;100.00
61908;BME280;47864;52.526;19.672;2022-11-20T07:49:44;100577.44;;;-0.97;100.00
61908;BME280;47864;52.526;19.672;2022-11-20T07:51:46;100570.66;;;-0.83;100.00
61908;BME280;47864;52.526;19.672;2022-11-20T07:53:52;100575.53;;;-0.77;100.00
61908;BME280;47864;52.526;19.672;2022-11-20T07:55:54;100565.28;;;-0.64;100.00
61908;BME280;47864;52.526;19.672;2022-11-20T07:57:56;100577.41;;;-0.63;100.00
61908;BME280;47864;52.526;19.672;2022-11-20T07:59:58;100579.41;;;-0.68;100.00
61908;BME280;47864;52.526;19.672;2022-11-20T08:02:00;100581.44;;;-0.57;100.00
61908;BME280;47864;52.526;19.672;2022-11-20T08:04:02;100573.25;;;-0.50;100.00
61908;BME280;47864;52.526;19.672;2022-11-20T08:06:04;100580.66;;;-0.26;100.00
61908;BME280;47864;52.526;19.672;2022-11-20T08:08:06;100578.97;;;-0.27;100.00
61908;BME280;47864;52.526;19.672;2022-11-20T08:10:10;100581.88;;;-0.49;100.00
61908;BME280;47864;52.526;19.672;2022-11-20T08:12:18;100574.50;;;-0.41;100.00
61908;BME280;47864;52.526;19.672;2022-11-20T08:14:20;100572.00;;;-0.43;100.00
61908;BME280;47864;52.526;19.672;2022-11-20T08:16:22;100569.25;;;-0.57;100.00
61908;BME280;47864;52.526;19.672;2022-11-20T08:18:24;100559.03;;;-0.44;99.42
61908;BME280;47864;52.526;19.672;2022-11-20T08:20:34;100553.25;;;-0.33;100.00
61908;BME280;47864;52.526;19.672;2022-11-20T08:22:36;100557.63;;;-0.34;99.19
61908;BME280;47864;52.526;19.672;2022-11-20T08:24:38;100551.72;;;-0.38;98.31
61908;BME280;47864;52.526;19.672;2022-11-20T08:26:40;100550.13;;;-0.24;97.47
61908;BME280;47864;52.526;19.672;2022-11-20T08:28:42;100551.56;;;-0.03;97.07
61908;BME280;47864;52.526;19.672;2022-11-20T08:30:44;100548.69;;;-0.14;96.09
61908;BME280;47864;52.526;19.672;2022-11-20T08:32:46;100542.81;;;-0.02;94.56
61908;BME280;47864;52.526;19.672;2022-11-20T08:34:47;100547.94;;;-0.16;96.14
61908;BME280;47864;52.526;19.672;2022-11-20T08:36:49;100537.16;;;0.21;95.51
61908;BME280;47864;52.526;19.672;2022-11-20T08:38:53;100530.38;;;0.49;93.29
61908;BME280;47864;52.526;19.672;2022-11-20T08:41:00;100538.31;;;0.61;92.20
61908;BME280;47864;52.526;19.672;2022-11-20T08:43:02;100534.63;;;0.50;89.49
61908;BME280;47864;52.526;19.672;2022-11-20T08:45:04;100514.81;;;0.47;89.92
61908;BME280;47864;52.526;19.672;2022-11-20T08:47:06;100529.78;;;0.73;88.41
61908;BME280;47864;52.526;19.672;2022-11-20T08:49:09;100535.50;;;0.94;88.51
61908;BME280;47864;52.526;19.672;2022-11-20T08:51:12;100539.03;;;0.79;87.81
61908;BME280;47864;52.526;19.672;2022-11-20T08:53:14;100530.56;;;0.60;87.71
61908;BME280;47864;52.526;19.672;2022-11-20T08:55:16;100538.16;;;0.64;88.39
61908;BME280;47864;52.526;19.672;2022-11-20T08:57:17;100533.47;;;0.55;87.92
61908;BME280;47864;52.526;19.672;2022-11-20T08:59:19;100535.34;;;0.37;88.95
61908;BME280;47864;52.526;19.672;2022-11-20T09:01:41;100540.41;;;0.41;89.80
61908;BME280;47864;52.526;19.672;2022-11-20T09:03:43;100539.81;;;0.35;88.64
61908;BME280;47864;52.526;19.672;2022-11-20T09:05:45;100531.16;;;0.35;89.28
61908;BME280;47864;52.526;19.672;2022-11-20T09:07:46;100540.91;;;0.47;89.34
61908;BME280;47864;52.526;19.672;2022-11-20T09:09:48;100537.94;;;0.53;89.00
61908;BME280;47864;52.526;19.672;2022-11-20T09:12:10;100530.63;;;0.14;89.40
61908;BME280;47864;52.526;19.672;2022-11-20T09:14:11;100530.81;;;0.41;88.89
61908;BME280;47864;52.526;19.672;2022-11-20T09:16:13;100517.69;;;0.27;89.44
61908;BME280;47864;52.526;19.672;2022-11-20T09:18:15;100524.84;;;0.39;89.91
61908;BME280;47864;52.526;19.672;2022-11-20T09:20:17;100523.41;;;0.33;88.54
61908;BME280;47864;52.526;19.672;2022-11-20T09:22:19;100527.69;;;0.34;88.31
61908;BME280;47864;52.526;19.672;2022-11-20T09:24:20;100521.00;;;0.74;88.26
61908;BME280;47864;52.526;19.672;2022-11-20T09:26:22;100516.00;;;0.86;87.26
61908;BME280;47864;52.526;19.672;2022-11-20T09:28:24;100521.38;;;0.83;85.93
61908;BME280;47864;52.526;19.672;2022-11-20T09:30:27;100514.41;;;0.83;86.37
61908;BME280;47864;52.526;19.672;2022-11-20T09:32:29;100515.06;;;0.72;84.45
61908;BME280;47864;52.526;19.672;2022-11-20T09:34:31;100523.50;;;0.62;86.11
61908;BME280;47864;52.526;19.672;2022-11-20T09:36:33;100515.59;;;0.77;85.39
61908;BME280;47864;52.526;19.672;2022-11-20T09:38:35;100515.53;;;0.79;85.38
61908;BME280;47864;52.526;19.672;2022-11-20T09:40:40;100502.41;;;0.51;85.74
61908;BME280;47864;52.526;19.672;2022-11-20T09:42:54;100507.09;;;0.60;85.82
61908;BME280;47864;52.526;19.672;2022-11-20T09:54:52;100511.97;;;0.66;85.00
61908;BME280;47864;52.526;19.672;2022-11-20T09:57:02;100507.03;;;0.75;85.89
61908;BME280;47864;52.526;19.672;2022-11-20T09:59:06;100506.38;;;0.72;84.25
61908;BME280;47864;52.526;19.672;2022-11-20T10:01:12;100500.22;;;0.73;84.15
61908;BME280;47864;52.526;19.672;2022-11-20T10:03:39;100498.19;;;0.92;82.98
61908;BME280;47864;52.526;19.672;2022-11-20T10:05:48;100502.03;;;1.15;82.42
61908;BME280;47864;52.526;19.672;2022-11-20T10:07:58;100497.78;;;1.41;81.64
61908;BME280;47864;52.526;19.672;2022-11-20T10:10:01;100489.97;;;1.55;80.53
61908;BME280;47864;52.526;19.672;2022-11-20T10:16:53;100486.06;;;1.75;78.94
61908;BME280;47864;52.526;19.672;2022-11-20T10:29:14;100474.34;;;2.21;78.01
61908;BME280;47864;52.526;19.672;2022-11-20T10:31:41;100471.66;;;2.09;77.65
61908;BME280;47864;52.526;19.672;2022-11-20T10:33:45;100474.53;;;1.91;78.03
61908;BME280;47864;52.526;19.672;2022-11-20T10:36:22;100478.81;;;1.66;79.02
61908;BME280;47864;52.526;19.672;2022-11-20T10:38:32;100472.59;;;1.54;79.51
61908;BME280;47864;52.526;19.672;2022-11-20T10:40:39;100458.91;;;1.77;80.17
61908;BME280;47864;52.526;19.672;2022-11-20T10:47:21;100482.38;;;1.50;80.18
61908;BME280;47864;52.526;19.672;2022-11-20T10:49:23;100473.47;;;1.67;80.32
61908;BME280;47864;52.526;19.672;2022-11-20T10:51:37;100465.72;;;1.66;80.67
61908;BME280;47864;52.526;19.672;2022-11-20T10:53:53;100467.41;;;1.81;80.83
61908;BME280;47864;52.526;19.672;2022-11-20T10:56:02;100473.09;;;1.73;82.34
61908;BME280;47864;52.526;19.672;2022-11-20T11:00:32;100460.63;;;1.50;84.23
61908;BME280;47864;52.526;19.672;2022-11-20T11:02:49;100471.19;;;1.63;85.87
61908;BME280;47864;52.526;19.672;2022-11-20T11:04:54;100471.97;;;1.77;84.58
61908;BME280;47864;52.526;19.672;2022-11-20T11:07:23;100455.69;;;1.86;82.54
61908;BME280;47864;52.526;19.672;2022-11-20T11:09:39;100464.66;;;1.82;82.33